Time;durP1;ratioP1;P1;durP2;ratioP2;P2;SDS_P1;SDS_P2;PMS_P1;PMS_P2;Temp;Humidity;BMP_temperature;BMP_pressure;BME280_temperature;BME280_humidity;BME280_pressure;Samples;Min_cycle;Max_cycle;Signal;HPM_P1;HPM_P2
2023/01/16 00:01:00;;;;;;;5.45;2.22;;;5.30;99.90;;;;;;4863580;29;20053;-92
2023/01/16 00:03:26;;;;;;;5.18;2.20;;;5.30;99.90;;;;;;4855831;29;20084;-92
2023/01/16 00:05:52;;;;;;;5.05;2.20;;;5.20;99.90;;;;;;4861808;29;20089;-93
2023/01/16 00:08:18;;;;;;;9.35;2.47;;;5.20;99.90;;;;;;4861206;29;20045;-92
2023/01/16 00:10:44;;;;;;;6.10;2.47;;;5.20;99.90;;;;;;4850162;29;20049;-93
2023/01/16 00:13:11;;;;;;;5.20;2.30;;;5.20;99.90;;;;;;4863577;29;20045;-93
2023/01/16 00:15:37;;;;;;;5.70;2.10;;;5.30;99.90;;;;;;4863389;29;20105;-93
2023/01/16 00:18:03;;;;;;;6.03;2.08;;;5.20;99.90;;;;;;4863464;29;20041;-92
2023/01/16 00:20:28;;;;;;;8.00;2.15;;;5.20;99.90;;;;;;4879522;29;20128;-92
2023/01/16 00:22:54;;;;;;;6.47;2.15;;;5.20;99.90;;;;;;4879497;29;20447;-93
2023/01/16 00:25:20;;;;;;;4.05;1.73;;;5.20;99.90;;;;;;4863449;29;20045;-93
2023/01/16 00:27:45;;;;;;;4.95;1.92;;;5.10;99.90;;;;;;4863756;29;20068;-92
2023/01/16 00:30:11;;;;;;;6.20;2.15;;;5.10;99.90;;;;;;4863116;29;20048;-93
2023/01/16 00:32:37;;;;;;;4.30;2.10;;;5.10;99.90;;;;;;4879954;29;20045;-92
2023/01/16 00:35:03;;;;;;;4.78;1.73;;;5.10;99.90;;;;;;4863209;29;20056;-93
2023/01/16 00:37:29;;;;;;;4.45;1.90;;;5.10;99.90;;;;;;4880970;29;20053;-93
2023/01/16 00:39:54;;;;;;;3.75;1.80;;;5.10;99.90;;;;;;4866994;29;20060;-92
2023/01/16 00:42:20;;;;;;;7.55;1.90;;;5.10;99.90;;;;;;4866445;29;20139;-92
2023/01/16 00:44:46;;;;;;;4.32;2.20;;;5.00;99.90;;;;;;4867418;29;20045;-93
2023/01/16 00:47:11;;;;;;;6.10;1.90;;;5.00;99.90;;;;;;4883683;29;20041;-93
2023/01/16 00:49:37;;;;;;;4.93;1.70;;;5.00;99.90;;;;;;4866412;29;20052;-92
2023/01/16 00:52:03;;;;;;;5.78;1.90;;;5.00;99.90;;;;;;4867116;29;20083;-93
2023/01/16 00:54:28;;;;;;;7.10;1.90;;;5.00;99.90;;;;;;4866855;29;20096;-93
2023/01/16 00:56:54;;;;;;;4.18;1.80;;;5.00;99.90;;;;;;4883115;29;20454;-93
2023/01/16 00:59:20;;;;;;;6.57;1.70;;;4.90;99.90;;;;;;4883090;29;20065;-92
2023/01/16 01:01:45;;;;;;;5.90;1.67;;;4.90;99.90;;;;;;4883577;29;20048;-93
2023/01/16 01:04:12;;;;;;;5.60;1.73;;;4.90;99.90;;;;;;4866648;29;20081;-93
2023/01/16 01:06:38;;;;;;;6.13;2.00;;;4.90;99.90;;;;;;4867122;29;20064;-92
2023/01/16 01:09:04;;;;;;;6.40;1.75;;;4.90;99.90;;;;;;4866554;29;20056;-93
2023/01/16 01:11:30;;;;;;;4.10;1.50;;;4.90;99.90;;;;;;4866355;29;20401;-93
2023/01/16 01:13:56;;;;;;;4.60;1.65;;;4.90;99.90;;;;;;4866969;29;20053;-93
2023/01/16 01:16:22;;;;;;;4.57;1.60;;;4.80;99.90;;;;;;4866554;29;20069;-92
2023/01/16 01:18:47;;;;;;;6.07;1.85;;;4.80;99.90;;;;;;4883190;29;20120;-92
2023/01/16 01:21:13;;;;;;;7.47;1.67;;;4.80;99.90;;;;;;4866206;29;20045;-93
2023/01/16 01:23:38;;;;;;;7.13;1.70;;;4.90;99.90;;;;;;4883135;29;20045;-93
2023/01/16 01:26:13;;;;;;;5.85;1.60;;;4.80;99.90;;;;;;4866715;29;20395;-92
2023/01/16 01:28:39;;;;;;;7.53;1.80;;;4.80;99.90;;;;;;4883101;29;20045;-93
2023/01/16 01:31:07;;;;;;;6.35;1.70;;;4.70;99.90;;;;;;4866563;29;20049;-93
2023/01/16 01:33:34;;;;;;;3.92;1.50;;;4.70;99.90;;;;;;4866208;29;20116;-93
2023/01/16 01:36:00;;;;;;;4.05;1.38;;;4.70;99.90;;;;;;4866043;29;20064;-93
2023/01/16 01:38:25;;;;;;;7.55;1.88;;;4.70;99.90;;;;;;4865248;29;20057;-92
2023/01/16 01:40:51;;;;;;;6.07;1.80;;;4.70;99.90;;;;;;4866761;29;20045;-93
2023/01/16 01:43:17;;;;;;;5.20;1.52;;;4.70;99.90;;;;;;4865934;29;20390;-92
2023/01/16 01:45:51;;;;;;;5.95;1.77;;;4.70;99.90;;;;;;4865714;29;20135;-92
2023/01/16 01:48:21;;;;;;;7.55;1.63;;;4.70;99.90;;;;;;4865691;29;20051;-92
2023/01/16 01:50:56;;;;;;;6.47;1.67;;;4.70;99.90;;;;;;4866352;29;20135;-92
2023/01/16 01:53:33;;;;;;;3.90;1.50;;;4.70;99.90;;;;;;4865436;29;20041;-93
2023/01/16 01:56:06;;;;;;;6.22;1.70;;;4.70;99.90;;;;;;4865813;29;20060;-92
2023/01/16 01:58:33;;;;;;;5.78;1.80;;;4.70;99.90;;;;;;4865710;29;20056;-92
2023/01/16 02:01:00;;;;;;;6.13;1.67;;;4.70;99.90;;;;;;4882212;29;20569;-92
2023/01/16 02:03:39;;;;;;;6.40;1.65;;;4.70;99.90;;;;;;4882295;29;20045;-92
2023/01/16 02:06:12;;;;;;;7.65;1.90;;;4.70;99.90;;;;;;4882290;29;20141;-92
2023/01/16 02:08:37;;;;;;;6.38;1.70;;;4.70;99.90;;;;;;4865709;29;20049;-92
2023/01/16 02:11:25;;;;;;;4.75;1.70;;;4.70;99.90;;;;;;4882446;29;20056;-92
2023/01/16 02:13:56;;;;;;;7.15;1.80;;;4.70;99.90;;;;;;4882117;29;20052;-93
2023/01/16 02:19:22;;;;;;;5.22;1.60;;;4.70;99.90;;;;;;4882325;29;20049;-92
2023/01/16 02:22:11;;;;;;;5.75;1.60;;;4.70;99.90;;;;;;4880988;29;20403;-92
2023/01/16 02:25:01;;;;;;;6.70;1.83;;;4.70;99.90;;;;;;4882175;29;20486;-92
2023/01/16 02:27:55;;;;;;;6.57;1.70;;;4.70;99.90;;;;;;4882096;29;20049;-93
2023/01/16 02:30:48;;;;;;;7.75;1.50;;;4.70;99.90;;;;;;4865307;29;20068;-93
2023/01/16 02:33:31;;;;;;;4.90;1.70;;;4.60;99.90;;;;;;4865429;29;20469;-93
2023/01/16 02:36:10;;;;;;;7.25;1.75;;;4.60;99.90;;;;;;4865051;29;20129;-92
2023/01/16 02:39:15;;;;;;;6.38;1.80;;;4.60;99.90;;;;;;4864570;29;20443;-93
2023/01/16 02:42:13;;;;;;;5.55;1.60;;;4.60;99.90;;;;;;4865063;29;20049;-93
2023/01/16 02:44:39;;;;;;;6.65;1.60;;;4.60;99.90;;;;;;4832290;29;20065;-92
2023/01/16 02:47:49;;;;;;;7.55;1.63;;;4.60;99.90;;;;;;4865165;29;20071;-92
2023/01/16 02:50:27;;;;;;;4.72;1.60;;;4.60;99.90;;;;;;4804096;29;20137;-93
2023/01/16 02:53:13;;;;;;;6.30;1.50;;;4.50;99.90;;;;;;4790935;29;20489;-93
2023/01/16 02:55:50;;;;;;;7.00;1.70;;;4.50;99.90;;;;;;4828851;29;20514;-93
2023/01/16 02:58:17;;;;;;;7.78;1.88;;;4.50;99.90;;;;;;4863116;29;20098;-93
2023/01/16 03:00:52;;;;;;;9.18;1.52;;;4.50;99.90;;;;;;4862396;29;20056;-93
2023/01/16 03:03:48;;;;;;;4.60;1.42;;;4.50;99.90;;;;;;4862510;29;20052;-93
2023/01/16 03:06:25;;;;;;;4.00;1.48;;;4.50;99.90;;;;;;4859520;29;20503;-93
2023/01/16 03:09:12;;;;;;;4.70;1.40;;;4.50;99.90;;;;;;4881437;29;20045;-93
2023/01/16 03:12:16;;;;;;;7.88;1.98;;;4.50;99.90;;;;;;4881259;29;20057;-93
2023/01/16 03:14:47;;;;;;;6.78;1.75;;;4.50;99.90;;;;;;4881314;29;20072;-93
2023/01/16 03:17:44;;;;;;;6.22;1.55;;;4.40;99.90;;;;;;4863875;29;20041;-93
2023/01/16 03:20:34;;;;;;;6.80;1.70;;;4.40;99.90;;;;;;4881104;29;20045;-93
2023/01/16 03:23:21;;;;;;;6.18;1.50;;;4.40;99.90;;;;;;4881368;29;20080;-93
2023/01/16 03:26:02;;;;;;;6.05;1.88;;;4.40;99.90;;;;;;4881154;29;20045;-92
2023/01/16 03:29:05;;;;;;;8.68;1.60;;;4.40;99.90;;;;;;4863954;29;20052;-93
2023/01/16 03:31:45;;;;;;;6.68;1.60;;;4.40;99.90;;;;;;4878441;29;20113;-93
2023/01/16 03:34:19;;;;;;;10.07;1.83;;;4.40;99.90;;;;;;4864174;29;20092;-93
2023/01/16 03:36:58;;;;;;;6.53;1.70;;;4.40;99.90;;;;;;4879641;29;20136;-93
2023/01/16 03:39:29;;;;;;;7.00;2.13;;;4.40;99.90;;;;;;4863780;29;20057;-92
2023/01/16 03:42:03;;;;;;;8.18;2.10;;;4.40;99.90;;;;;;4864464;29;20393;-93
2023/01/16 03:44:34;;;;;;;7.50;1.98;;;4.40;99.90;;;;;;4880630;29;20049;-93
2023/01/16 03:47:02;;;;;;;10.40;2.65;;;4.40;99.90;;;;;;4864271;29;20486;-93
2023/01/16 03:49:41;;;;;;;9.35;2.70;;;4.40;99.90;;;;;;4880509;29;20476;-93
2023/01/16 03:52:12;;;;;;;8.50;2.97;;;4.40;99.90;;;;;;4880054;29;20041;-93
2023/01/16 03:54:52;;;;;;;10.10;2.70;;;4.40;99.90;;;;;;4863888;29;20139;-92
2023/01/16 03:57:24;;;;;;;8.23;2.75;;;4.40;99.90;;;;;;4880262;29;20117;-93
2023/01/16 03:59:52;;;;;;;10.93;2.47;;;4.40;99.90;;;;;;4879450;29;20044;-93
2023/01/16 04:02:27;;;;;;;7.70;2.58;;;4.40;99.90;;;;;;4863415;29;20123;-93
2023/01/16 04:05:00;;;;;;;6.70;3.08;;;4.50;99.90;;;;;;4863959;29;20100;-93
2023/01/16 04:07:29;;;;;;;7.28;2.88;;;4.40;99.90;;;;;;4880152;29;20045;-93
2023/01/16 04:10:01;;;;;;;7.25;3.55;;;4.50;99.90;;;;;;4863501;29;20092;-92
2023/01/16 04:12:43;;;;;;;7.93;3.00;;;4.50;99.90;;;;;;4863066;29;20060;-93
2023/01/16 04:15:10;;;;;;;7.53;3.30;;;4.50;99.90;;;;;;4880230;29;20092;-93
2023/01/16 04:17:38;;;;;;;8.60;3.58;;;4.50;99.90;;;;;;4863940;29;20095;-93
2023/01/16 04:20:06;;;;;;;9.95;3.35;;;4.50;99.90;;;;;;4863699;29;20513;-94
2023/01/16 04:22:31;;;;;;;7.20;2.80;;;4.50;99.90;;;;;;4880057;29;20426;-94
2023/01/16 04:25:00;;;;;;;8.13;3.67;;;4.50;99.90;;;;;;4863783;29;20053;-93
2023/01/16 04:27:26;;;;;;;11.55;4.43;;;4.50;99.90;;;;;;4863610;29;20123;-93
2023/01/16 04:29:51;;;;;;;8.32;3.90;;;4.50;99.90;;;;;;4880477;29;20157;-93
2023/01/16 04:32:17;;;;;;;10.88;4.18;;;4.50;99.90;;;;;;4879788;29;20128;-93
2023/01/16 04:34:43;;;;;;;8.00;3.60;;;4.60;99.90;;;;;;4863670;29;20443;-93
2023/01/16 04:37:12;;;;;;;9.73;4.00;;;4.60;99.90;;;;;;4879567;29;20052;-93
2023/01/16 04:39:38;;;;;;;8.07;4.35;;;4.60;99.90;;;;;;4880351;29;20056;-93
2023/01/16 04:42:04;;;;;;;10.50;5.38;;;4.60;99.90;;;;;;4863365;29;20410;-93
2023/01/16 04:44:29;;;;;;;11.75;5.63;;;4.60;99.90;;;;;;4879804;29;20072;-93
2023/01/16 04:46:55;;;;;;;10.07;5.32;;;4.60;99.90;;;;;;4880217;29;20406;-92
2023/01/16 04:49:20;;;;;;;9.00;4.72;;;4.70;99.90;;;;;;4863044;29;20105;-92
2023/01/16 04:51:46;;;;;;;12.27;6.72;;;4.70;99.90;;;;;;4879870;29;20501;-93
2023/01/16 04:54:17;;;;;;;12.02;5.78;;;4.60;99.90;;;;;;4863194;29;20045;-94
2023/01/16 04:56:43;;;;;;;9.57;4.90;;;4.70;99.90;;;;;;4863378;29;20084;-93
2023/01/16 04:59:09;;;;;;;11.27;6.65;;;4.60;99.90;;;;;;4880000;29;20053;-94
2023/01/16 05:01:36;;;;;;;8.68;5.05;;;4.70;99.90;;;;;;4880098;29;20045;-93
2023/01/16 05:04:06;;;;;;;16.58;6.70;;;4.70;99.90;;;;;;4878843;29;20045;-93
2023/01/16 05:06:33;;;;;;;13.98;7.15;;;4.70;99.90;;;;;;4863678;29;20048;-93
2023/01/16 05:08:59;;;;;;;7.93;4.93;;;4.70;99.90;;;;;;4863431;29;20053;-93
2023/01/16 05:11:24;;;;;;;10.23;5.20;;;4.70;99.90;;;;;;4879816;29;20049;-93
2023/01/16 05:13:50;;;;;;;10.60;5.53;;;4.70;99.90;;;;;;4863476;29;20037;-94
2023/01/16 05:16:16;;;;;;;10.13;4.82;;;4.60;99.90;;;;;;4879252;29;20510;-92
2023/01/16 05:18:41;;;;;;;7.57;4.60;;;4.60;99.90;;;;;;4880102;29;20128;-93
2023/01/16 05:21:07;;;;;;;10.45;6.20;;;4.60;99.90;;;;;;4862863;29;20049;-93
2023/01/16 05:23:33;;;;;;;12.32;5.32;;;4.60;99.90;;;;;;4864698;29;20478;-93
2023/01/16 05:25:59;;;;;;;11.02;7.07;;;4.60;99.90;;;;;;4866582;29;20048;-93
2023/01/16 05:28:25;;;;;;;14.43;6.53;;;4.60;99.90;;;;;;4883110;29;20120;-94
2023/01/16 05:30:51;;;;;;;12.98;7.30;;;4.60;99.90;;;;;;4866366;29;20072;-94
2023/01/16 05:33:17;;;;;;;9.77;6.30;;;4.60;99.90;;;;;;4882611;29;20052;-93
2023/01/16 05:35:44;;;;;;;10.60;6.78;;;4.60;99.90;;;;;;4883081;29;20455;-92
2023/01/16 05:38:11;;;;;;;10.13;7.20;;;4.50;99.90;;;;;;4882483;29;20490;-93
2023/01/16 05:40:37;;;;;;;11.40;6.32;;;4.50;99.90;;;;;;4866512;29;20041;-93
2023/01/16 05:43:03;;;;;;;9.95;6.05;;;4.50;99.90;;;;;;4866322;29;20144;-94
2023/01/16 05:45:32;;;;;;;11.07;6.80;;;4.50;99.90;;;;;;4866019;29;20384;-93
2023/01/16 05:48:00;;;;;;;12.15;6.50;;;4.50;99.90;;;;;;4883123;29;20041;-94
2023/01/16 05:50:26;;;;;;;10.68;6.28;;;4.50;99.90;;;;;;4865773;29;20057;-94
2023/01/16 05:52:54;;;;;;;14.15;6.28;;;4.50;99.90;;;;;;4883071;29;20045;-94
2023/01/16 05:55:20;;;;;;;9.15;5.40;;;4.40;99.90;;;;;;4865973;29;20044;-94
2023/01/16 05:57:46;;;;;;;10.15;6.28;;;4.40;99.90;;;;;;4866473;29;20402;-93
2023/01/16 06:00:18;;;;;;;10.52;7.40;;;4.40;99.90;;;;;;4882385;29;20045;-93
2023/01/16 06:02:46;;;;;;;10.50;6.87;;;4.40;99.90;;;;;;4882142;29;20053;-93
2023/01/16 06:05:12;;;;;;;13.45;7.10;;;4.40;99.90;;;;;;4864071;29;20053;-92
2023/01/16 06:07:38;;;;;;;13.38;7.15;;;4.40;99.90;;;;;;4864109;29;20045;-92
2023/01/16 06:10:04;;;;;;;11.85;7.30;;;4.40;99.90;;;;;;4847115;29;20517;-93
2023/01/16 06:12:31;;;;;;;16.60;7.20;;;4.40;99.90;;;;;;4847608;29;20048;-93
2023/01/16 06:14:58;;;;;;;16.27;7.65;;;4.40;99.90;;;;;;4847679;29;20483;-93
2023/01/16 06:17:23;;;;;;;12.82;6.72;;;4.40;99.90;;;;;;4847180;29;20042;-92
2023/01/16 06:19:49;;;;;;;10.65;6.68;;;4.40;99.90;;;;;;4880891;29;20131;-93
2023/01/16 06:22:14;;;;;;;9.10;6.00;;;4.30;99.90;;;;;;4865802;29;20478;-92
2023/01/16 06:24:40;;;;;;;13.40;6.15;;;4.30;99.90;;;;;;4865560;29;20049;-93
2023/01/16 06:27:06;;;;;;;12.38;6.60;;;4.30;99.90;;;;;;4865017;29;20033;-93
2023/01/16 06:29:32;;;;;;;12.43;6.07;;;4.40;99.90;;;;;;4882312;29;20057;-93
2023/01/16 06:31:58;;;;;;;13.35;6.13;;;4.30;99.90;;;;;;4866469;29;20486;-92
2023/01/16 06:34:23;;;;;;;11.50;6.75;;;4.30;99.90;;;;;;4864470;29;20056;-93
2023/01/16 06:36:49;;;;;;;14.32;6.70;;;4.30;99.90;;;;;;4865336;29;20434;-94
2023/01/16 06:39:15;;;;;;;10.30;6.25;;;4.30;99.90;;;;;;4880917;29;20515;-93
2023/01/16 06:41:41;;;;;;;12.27;6.20;;;4.30;99.90;;;;;;4881935;29;20045;-94
2023/01/16 06:44:07;;;;;;;11.13;6.05;;;4.30;99.90;;;;;;4865031;29;20073;-94
2023/01/16 06:46:33;;;;;;;15.25;6.47;;;4.20;99.90;;;;;;4881953;29;20045;-93
2023/01/16 06:48:59;;;;;;;11.93;5.70;;;4.20;99.90;;;;;;4864801;29;20060;-93
2023/01/16 06:51:25;;;;;;;13.23;6.85;;;4.30;99.90;;;;;;4881619;29;20048;-94
2023/01/16 06:53:50;;;;;;;10.93;6.35;;;4.20;99.90;;;;;;4865108;29;20044;-93
2023/01/16 06:56:21;;;;;;;13.32;6.50;;;4.20;99.90;;;;;;4864750;29;20053;-93
2023/01/16 06:58:47;;;;;;;10.23;5.85;;;4.20;99.90;;;;;;4862371;29;20037;-93
2023/01/16 07:01:12;;;;;;;12.35;6.57;;;4.30;99.90;;;;;;4864923;29;20513;-94
2023/01/16 07:03:38;;;;;;;12.57;5.30;;;4.20;99.90;;;;;;4881699;29;20045;-92
2023/01/16 07:06:06;;;;;;;10.65;5.60;;;4.20;99.90;;;;;;4865068;29;20466;-92
2023/01/16 07:08:33;;;;;;;8.65;5.30;;;4.20;99.90;;;;;;4864861;29;20045;-92
2023/01/16 07:10:59;;;;;;;12.10;5.97;;;4.20;99.90;;;;;;4864086;29;20057;-93
2023/01/16 07:13:28;;;;;;;9.80;5.35;;;4.20;99.90;;;;;;4864757;29;20092;-92
2023/01/16 07:24:12;;;;;;;11.50;5.63;;;4.20;99.90;;;;;;4864154;29;20053;-92
2023/01/16 07:26:42;;;;;;;11.23;5.50;;;4.20;99.90;;;;;;4880062;29;20103;-91
2023/01/16 07:29:08;;;;;;;8.52;5.00;;;4.20;99.90;;;;;;4880227;29;20498;-94
2023/01/16 07:31:35;;;;;;;10.70;5.13;;;4.20;99.90;;;;;;4863879;29;20406;-93
2023/01/16 07:34:00;;;;;;;11.40;5.20;;;4.20;99.90;;;;;;4864348;29;20045;-92
2023/01/16 07:36:26;;;;;;;11.48;5.10;;;4.20;99.90;;;;;;4880157;29;20073;-92
2023/01/16 07:38:52;;;;;;;10.63;4.80;;;4.20;99.90;;;;;;4879906;29;20104;-91
2023/01/16 07:41:17;;;;;;;9.27;4.65;;;4.20;99.90;;;;;;4864149;29;20041;-92
2023/01/16 07:43:43;;;;;;;9.90;4.78;;;4.20;99.90;;;;;;4864678;29;20049;-92
2023/01/16 07:46:09;;;;;;;10.52;4.65;;;4.10;99.90;;;;;;4863299;29;20446;-94
2023/01/16 07:48:34;;;;;;;9.70;4.32;;;4.10;99.90;;;;;;4865722;29;20045;-91
2023/01/16 07:51:00;;;;;;;7.97;4.30;;;4.10;99.90;;;;;;4880486;29;20116;-92
2023/01/16 07:53:28;;;;;;;9.60;4.22;;;4.20;99.90;;;;;;4879713;29;20045;-95
2023/01/16 07:55:59;;;;;;;12.32;4.90;;;4.20;99.90;;;;;;4880510;29;20045;-90
2023/01/16 07:58:26;;;;;;;11.80;4.63;;;4.10;99.90;;;;;;4862361;29;20037;-92
2023/01/16 08:00:56;;;;;;;9.05;4.43;;;4.10;99.90;;;;;;4864076;29;20044;-91
2023/01/16 08:03:23;;;;;;;8.55;4.07;;;4.20;99.90;;;;;;4880240;29;20052;-92
2023/01/16 08:05:49;;;;;;;8.38;4.13;;;4.20;99.90;;;;;;4863322;29;20247;-92
2023/01/16 08:08:18;;;;;;;8.88;4.50;;;4.20;99.90;;;;;;4878371;29;20100;-91
2023/01/16 08:10:44;;;;;;;7.25;3.72;;;4.20;99.90;;;;;;4879150;29;20096;-92
2023/01/16 08:13:09;;;;;;;11.13;3.90;;;4.20;99.90;;;;;;4880269;29;20040;-92
2023/01/16 08:15:35;;;;;;;9.10;3.80;;;4.20;99.90;;;;;;4864526;29;20053;-92
2023/01/16 08:18:00;;;;;;;9.45;3.97;;;4.20;99.90;;;;;;4879971;29;20048;-92
2023/01/16 08:20:26;;;;;;;8.93;3.90;;;4.20;99.90;;;;;;4880009;29;20127;-91
2023/01/16 08:22:52;;;;;;;8.70;4.13;;;4.10;99.90;;;;;;4863699;29;20096;-92
2023/01/16 08:25:22;;;;;;;12.55;3.72;;;4.10;99.90;;;;;;4863558;29;20546;-91
2023/01/16 08:27:48;;;;;;;8.90;3.72;;;4.20;99.90;;;;;;4863734;29;20045;-93
2023/01/16 08:30:15;;;;;;;8.93;3.90;;;4.20;99.90;;;;;;4879504;29;20041;-93
2023/01/16 08:32:40;;;;;;;7.15;3.70;;;4.20;99.90;;;;;;4881381;29;20049;-93
2023/01/16 08:35:07;;;;;;;8.88;4.00;;;4.20;99.90;;;;;;4880410;29;20037;-93
2023/01/16 08:37:33;;;;;;;10.05;4.10;;;4.20;99.90;;;;;;4879915;29;20124;-94
2023/01/16 08:39:59;;;;;;;9.30;3.30;;;4.20;99.90;;;;;;4880559;29;20064;-95
2023/01/16 08:53:24;;;;;;;7.85;3.58;;;4.20;99.90;;;;;;4863199;29;20068;-92
2023/01/16 08:55:50;;;;;;;9.18;3.42;;;4.20;99.90;;;;;;4862926;29;20490;-92
2023/01/16 08:58:15;;;;;;;8.38;3.67;;;4.20;99.90;;;;;;4864134;29;20049;-92
2023/01/16 09:00:41;;;;;;;7.15;3.42;;;4.20;99.90;;;;;;4866951;29;20048;-94
2023/01/16 09:03:07;;;;;;;8.38;3.50;;;4.30;99.90;;;;;;4866338;29;20129;-94
2023/01/16 09:05:32;;;;;;;8.38;3.17;;;4.30;99.90;;;;;;4883784;29;20041;-93
2023/01/16 09:07:58;;;;;;;7.88;3.10;;;4.30;99.90;;;;;;4867547;29;20049;-93
2023/01/16 09:10:24;;;;;;;9.55;3.78;;;4.30;99.90;;;;;;4882237;29;20049;-92
2023/01/16 09:15:35;;;;;;;9.95;3.78;;;4.30;99.90;;;;;;4866026;29;20053;-92
2023/01/16 09:18:03;;;;;;;8.30;3.40;;;4.30;99.90;;;;;;4883245;29;20093;-93
2023/01/16 09:20:29;;;;;;;8.70;3.05;;;4.30;99.90;;;;;;4866325;29;20055;-93
2023/01/16 09:23:02;;;;;;;7.68;3.28;;;4.40;99.90;;;;;;4866377;29;20407;-93
2023/01/16 09:25:29;;;;;;;8.30;2.83;;;4.40;99.90;;;;;;4866673;29;20044;-93
2023/01/16 09:27:54;;;;;;;6.95;3.03;;;4.40;99.90;;;;;;4883089;29;20045;-93
2023/01/16 09:30:20;;;;;;;8.73;3.15;;;4.40;99.90;;;;;;4865583;29;20414;-94
2023/01/16 09:32:47;;;;;;;6.03;2.92;;;4.40;99.90;;;;;;4866880;29;20052;-93
2023/01/16 09:35:13;;;;;;;7.03;2.50;;;4.40;99.90;;;;;;4866494;29;20056;-92
2023/01/16 09:37:40;;;;;;;7.47;3.38;;;4.40;99.90;;;;;;4865610;29;20061;-93
2023/01/16 09:40:12;;;;;;;6.82;2.72;;;4.50;99.90;;;;;;4866764;29;20052;-93
2023/01/16 09:45:46;;;;;;;5.45;2.40;;;4.50;99.90;;;;;;4881945;29;20482;-92
2023/01/16 09:48:32;;;;;;;6.35;2.70;;;4.50;99.90;;;;;;4889325;29;20049;-93
2023/01/16 09:51:07;;;;;;;5.82;2.55;;;4.50;99.90;;;;;;4889100;29;20124;-93
2023/01/16 09:59:21;;;;;;;5.53;2.22;;;4.50;99.90;;;;;;4867838;29;20206;-94
2023/01/16 10:01:55;;;;;;;6.93;2.67;;;4.60;99.90;;;;;;4868743;29;20566;-93
2023/01/16 10:04:24;;;;;;;5.88;2.20;;;4.60;99.90;;;;;;4866696;29;20116;-92
2023/01/16 10:07:00;;;;;;;8.43;2.13;;;4.60;99.90;;;;;;4882149;29;20478;-96
2023/01/16 10:09:28;;;;;;;5.50;2.10;;;4.60;99.90;;;;;;4885642;29;20052;-96
2023/01/16 10:12:00;;;;;;;7.10;2.40;;;4.60;99.90;;;;;;4883788;29;20040;-96
2023/01/16 10:14:36;;;;;;;6.93;1.98;;;4.60;99.90;;;;;;4872558;29;20036;-96
2023/01/16 10:17:30;;;;;;;6.50;2.00;;;4.60;99.90;;;;;;4873656;29;20076;-96
2023/01/16 10:20:04;;;;;;;6.00;1.92;;;4.60;99.90;;;;;;4874826;29;20060;-96
2023/01/16 10:22:44;;;;;;;4.93;2.08;;;4.60;99.90;;;;;;4873077;29;20049;-96
2023/01/16 10:25:28;;;;;;;5.78;1.80;;;4.60;99.90;;;;;;4885134;29;20061;-94
2023/01/16 10:28:25;;;;;;;5.18;1.70;;;4.60;99.90;;;;;;4865496;29;20092;-93
2023/01/16 10:31:08;;;;;;;6.03;2.10;;;4.60;99.90;;;;;;4882780;29;20044;-96
2023/01/16 10:34:08;;;;;;;4.85;1.40;;;4.60;99.90;;;;;;4862763;29;20033;-95
2023/01/16 10:36:41;;;;;;;4.32;1.40;;;4.60;99.90;;;;;;4802916;29;20098;-96
2023/01/16 10:39:11;;;;;;;4.65;1.55;;;4.60;99.90;;;;;;4848662;29;20088;-96
2023/01/16 10:50:16;;;;;;;4.95;1.40;;;4.70;99.90;;;;;;4833865;29;20050;-93
2023/01/16 10:52:42;;;;;;;5.63;1.60;;;4.70;99.90;;;;;;4842950;29;20041;-92
2023/01/16 10:55:09;;;;;;;5.47;1.40;;;4.60;99.90;;;;;;4835177;29;20045;-93
2023/01/16 10:57:44;;;;;;;3.70;1.30;;;4.70;99.90;;;;;;4846536;29;20045;-95
2023/01/16 11:00:17;;;;;;;5.53;1.33;;;4.60;99.90;;;;;;4846105;29;20068;-96
2023/01/16 11:02:46;;;;;;;4.47;1.00;;;4.60;99.90;;;;;;4862246;29;20128;-92
2023/01/16 11:05:41;;;;;;;4.63;1.30;;;4.60;99.90;;;;;;4845779;29;20045;-95
2023/01/16 11:08:12;;;;;;;3.17;1.08;;;4.60;99.90;;;;;;4842114;29;20057;-94
2023/01/16 11:10:40;;;;;;;3.70;1.27;;;4.60;99.90;;;;;;4845704;29;20049;-94
2023/01/16 11:19:17;;;;;;;4.15;1.42;;;4.60;99.90;;;;;;4867167;29;20053;-93
2023/01/16 11:21:44;;;;;;;4.15;1.40;;;4.60;99.90;;;;;;4841722;29;20057;-95
2023/01/16 11:24:14;;;;;;;4.30;1.30;;;4.60;99.90;;;;;;4854477;29;20045;-93
2023/01/16 11:26:41;;;;;;;3.90;1.25;;;4.60;99.90;;;;;;4849890;29;20053;-91
2023/01/16 11:29:19;;;;;;;2.92;1.20;;;4.70;99.90;;;;;;4851200;29;20048;-92
2023/01/16 11:31:56;;;;;;;4.97;1.30;;;4.60;99.90;;;;;;4848313;29;20045;-92
2023/01/16 11:34:27;;;;;;;4.78;1.50;;;4.60;99.90;;;;;;4864771;29;20486;-96
2023/01/16 11:36:58;;;;;;;3.13;1.30;;;4.60;99.90;;;;;;4864190;29;20093;-92
2023/01/16 11:39:27;;;;;;;2.65;1.20;;;4.70;99.90;;;;;;4873935;29;20131;-94
2023/01/16 11:41:56;;;;;;;2.80;1.17;;;4.60;99.90;;;;;;4880195;29;20394;-93
2023/01/16 11:47:15;;;;;;;4.15;1.10;;;4.60;99.90;;;;;;4856838;29;20049;-95
2023/01/16 11:49:45;;;;;;;3.05;1.10;;;4.70;99.90;;;;;;4882687;29;20139;-96
2023/01/16 11:52:14;;;;;;;3.70;1.17;;;4.70;99.90;;;;;;4866243;29;20045;-96
2023/01/16 11:54:39;;;;;;;3.03;1.00;;;4.60;99.90;;;;;;4875480;29;20048;-96
2023/01/16 11:57:46;;;;;;;5.35;1.05;;;4.70;99.90;;;;;;4865649;29;20043;-96
2023/01/16 12:00:24;;;;;;;3.40;1.27;;;4.70;99.90;;;;;;4880329;29;20056;-96
2023/01/16 12:03:18;;;;;;;3.88;1.10;;;4.70;99.90;;;;;;4846262;29;20053;-96
2023/01/16 12:05:57;;;;;;;3.35;1.08;;;4.70;99.90;;;;;;4852695;29;20076;-96
2023/01/16 12:08:54;;;;;;;2.42;1.10;;;4.70;99.90;;;;;;4867244;29;20493;-96
2023/01/16 12:11:35;;;;;;;4.60;1.00;;;4.70;99.90;;;;;;4863722;29;20045;-94
2023/01/16 12:14:25;;;;;;;4.50;1.20;;;4.70;99.90;;;;;;4880403;29;20128;-94
2023/01/16 12:17:18;;;;;;;3.03;1.10;;;4.70;99.90;;;;;;4881398;29;20124;-93
2023/01/16 12:19:49;;;;;;;4.07;1.10;;;4.70;99.90;;;;;;4863325;29;20049;-94
2023/01/16 12:22:42;;;;;;;4.22;1.10;;;4.70;99.90;;;;;;4863539;29;20051;-94
2023/01/16 12:25:50;;;;;;;3.85;1.10;;;4.70;99.90;;;;;;4880684;29;20045;-96
2023/01/16 12:28:37;;;;;;;4.85;0.80;;;4.70;99.90;;;;;;4866172;29;20116;-93
2023/01/16 12:31:37;;;;;;;2.75;1.00;;;4.70;99.90;;;;;;4880448;29;20041;-94
2023/01/16 12:34:38;;;;;;;2.15;0.93;;;4.70;99.90;;;;;;4869146;29;20045;-94
2023/01/16 12:37:28;;;;;;;4.53;1.00;;;4.70;99.90;;;;;;4866664;29;20093;-94
2023/01/16 12:40:37;;;;;;;5.38;1.20;;;4.70;99.90;;;;;;4867558;29;20053;-96
2023/01/16 12:43:20;;;;;;;2.95;1.10;;;4.70;99.90;;;;;;4867010;29;20517;-95
2023/01/16 12:45:54;;;;;;;4.07;1.40;;;4.70;99.90;;;;;;4884058;29;20037;-95
2023/01/16 12:48:45;;;;;;;5.18;1.27;;;4.80;99.90;;;;;;4883274;29;20049;-94
2023/01/16 12:51:30;;;;;;;3.63;1.10;;;4.80;99.90;;;;;;4867484;29;20128;-93
2023/01/16 12:54:25;;;;;;;3.83;1.00;;;4.80;99.90;;;;;;4885283;29;20037;-96
2023/01/16 12:57:34;;;;;;;5.18;1.17;;;4.80;99.90;;;;;;4866284;29;20061;-96
2023/01/16 13:00:10;;;;;;;3.85;1.27;;;4.80;99.90;;;;;;4867753;29;20083;-93
2023/01/16 13:02:51;;;;;;;4.07;1.13;;;4.80;99.90;;;;;;4883920;29;20086;-93
2023/01/16 13:05:21;;;;;;;9.02;1.38;;;4.80;99.90;;;;;;4868314;29;20060;-96
2023/01/16 13:08:17;;;;;;;2.88;1.13;;;4.80;99.90;;;;;;4884811;29;20189;-95
2023/01/16 13:13:40;;;;;;;4.53;1.10;;;4.80;99.90;;;;;;4868037;29;20053;-96
2023/01/16 13:16:20;;;;;;;3.60;1.30;;;4.80;99.90;;;;;;4851327;29;20057;-96
2023/01/16 13:19:00;;;;;;;4.55;1.20;;;4.80;99.90;;;;;;4864426;29;20056;-96
2023/01/16 13:21:30;;;;;;;3.75;1.20;;;4.90;99.90;;;;;;4883538;29;20057;-95
2023/01/16 13:24:03;;;;;;;4.43;1.45;;;4.80;99.90;;;;;;4866037;29;20041;-95
2023/01/16 13:26:30;;;;;;;;;;;4.90;99.90;;;;;;4883873;29;20041;-95
2023/01/16 13:29:28;;;;;;;3.90;1.33;;;4.80;99.90;;;;;;4883310;29;19966;-96
2023/01/16 13:31:58;;;;;;;5.35;1.42;;;4.80;99.90;;;;;;4866662;29;20049;-95
2023/01/16 13:34:34;;;;;;;3.58;1.20;;;4.90;99.90;;;;;;4881910;29;20498;-94
2023/01/16 13:37:10;;;;;;;3.88;1.50;;;4.90;99.90;;;;;;4866190;29;20144;-94
2023/01/16 13:39:47;;;;;;;3.95;1.10;;;4.90;99.90;;;;;;4883027;29;20045;-94
2023/01/16 13:42:15;;;;;;;3.85;1.23;;;4.90;99.90;;;;;;4883236;29;20041;-94
2023/01/16 13:47:38;;;;;;;4.65;1.40;;;4.90;99.90;;;;;;4882751;29;20502;-94
2023/01/16 13:50:24;;;;;;;3.63;1.48;;;4.90;99.90;;;;;;4879651;29;20049;-95
2023/01/16 13:52:53;;;;;;;5.13;1.30;;;5.00;99.90;;;;;;4869782;29;20041;-95
2023/01/16 13:55:29;;;;;;;5.97;1.52;;;4.90;99.90;;;;;;4865845;29;20044;-95
2023/01/16 13:58:06;;;;;;;4.25;1.40;;;5.00;99.90;;;;;;4864438;29;20041;-95
2023/01/16 14:00:33;;;;;;;4.88;1.30;;;5.00;99.90;;;;;;4879963;29;20150;-96
2023/01/16 14:03:20;;;;;;;3.25;1.30;;;5.00;99.90;;;;;;4866403;29;20135;-95
2023/01/16 14:06:08;;;;;;;4.93;1.40;;;5.00;99.90;;;;;;4866467;29;20072;-96
2023/01/16 14:09:07;;;;;;;3.28;1.17;;;5.00;99.90;;;;;;4882497;29;20077;-92
2023/01/16 14:11:35;;;;;;;5.40;1.52;;;5.00;99.90;;;;;;4882455;29;20049;-93
2023/01/16 14:17:25;;;;;;;5.13;1.40;;;5.00;99.90;;;;;;4871119;29;20505;-96
2023/01/16 14:20:02;;;;;;;3.97;1.30;;;5.10;99.90;;;;;;4880855;29;20045;-96
2023/01/16 14:25:27;;;;;;;6.93;1.50;;;5.10;99.90;;;;;;4865330;29;20131;-96